createdAt,value
2022-09-05T00:01:57.285Z,100661.69
2022-09-05T00:04:50.422Z,100661.79
2022-09-05T00:07:59.252Z,100654.17
2022-09-05T00:11:42.715Z,100654.66
2022-09-05T00:15:16.219Z,100650.54
2022-09-05T00:24:21.503Z,100649.72
2022-09-05T00:24:34.844Z,100649.70
2022-09-05T00:26:01.184Z,100647.25
2022-09-05T00:28:58.685Z,100648.28
2022-09-05T00:32:03.930Z,100647.99
2022-09-05T00:36:00.501Z,100650.38
2022-09-05T00:39:32.261Z,100650.42
2022-09-05T00:42:31.517Z,100646.09
2022-09-05T00:45:27.666Z,100651.03
2022-09-05T00:48:32.087Z,100652.64
2022-09-05T00:51:38.702Z,100657.05
2022-09-05T00:55:02.314Z,100656.43
2022-09-05T00:58:25.793Z,100653.16
2022-09-05T01:01:51.497Z,100660.14
2022-09-05T01:05:26.511Z,100662.87
2022-09-05T01:08:33.802Z,100659.86
2022-09-05T01:11:55.849Z,100661.83
2022-09-05T01:15:19.006Z,100663.98
2022-09-05T01:18:50.571Z,100660.83
2022-09-05T01:21:48.265Z,100661.98
2022-09-05T01:25:34.352Z,100660.33
2022-09-05T01:29:15.345Z,100661.77
2022-09-05T01:32:42.765Z,100663.26
2022-09-05T01:36:04.322Z,100665.83
2022-09-05T01:40:12.099Z,100659.83
2022-09-05T01:44:00.602Z,100660.64
2022-09-05T01:47:30.828Z,100663.02
2022-09-05T01:51:29.290Z,100664.04
2022-09-05T01:54:59.077Z,100662.77
2022-09-05T01:58:37.591Z,100665.56
2022-09-05T02:02:09.002Z,100668.66
2022-09-05T02:05:47.750Z,100667.04
2022-09-05T02:09:26.197Z,100674.02
2022-09-05T02:12:15.686Z,100670.09
2022-09-05T02:15:52.450Z,100673.91
2022-09-05T02:19:09.494Z,100677.27
2022-09-05T02:22:31.094Z,100678.31
2022-09-05T02:26:00.998Z,100678.09
2022-09-05T02:29:53.005Z,100683.64
2022-09-05T02:32:55.286Z,100689.11
2022-09-05T02:35:56.978Z,100687.12
2022-09-05T02:44:43.040Z,100689.62
2022-09-05T02:45:18.188Z,100690.88
2022-09-05T02:47:09.727Z,100692.52
2022-09-05T02:55:02.022Z,100690.57
2022-09-05T02:57:35.085Z,100690.15
2022-09-05T02:58:05.289Z,100689.68
2022-09-05T03:01:26.956Z,100688.40
2022-09-05T03:04:26.462Z,100678.73
2022-09-05T03:07:35.944Z,100679.15
2022-09-05T03:11:20.657Z,100678.58
2022-09-05T03:14:46.690Z,100674.85
2022-09-05T03:18:21.672Z,100675.84
2022-09-05T03:21:26.128Z,100675.88
2022-09-05T03:24:41.127Z,100679.11
2022-09-05T03:27:50.683Z,100682.29
2022-09-05T03:30:59.990Z,100685.77
2022-09-05T03:34:38.249Z,100682.65
2022-09-05T03:38:00.749Z,100684.98
2022-09-05T03:41:04.715Z,100684.92
2022-09-05T03:44:27.391Z,100683.58
2022-09-05T03:48:28.334Z,100681.25
2022-09-05T03:57:13.959Z,100679.60
2022-09-05T03:57:27.458Z,100683.11
2022-09-05T03:58:57.101Z,100679.27
2022-09-05T04:08:11.434Z,100685.64
2022-09-05T04:08:15.117Z,100687.42
2022-09-05T04:08:42.354Z,100688.95
2022-09-05T04:11:35.871Z,100691.73
2022-09-05T04:14:54.389Z,100695.17
2022-09-05T04:17:53.060Z,100703.70
2022-09-05T04:21:38.311Z,100707.75
2022-09-05T04:24:44.293Z,100706.86
2022-09-05T04:27:51.502Z,100709.44
2022-09-05T04:30:56.353Z,100712.82
2022-09-05T04:34:24.099Z,100712.94
2022-09-05T04:37:12.044Z,100713.23
2022-09-05T04:40:38.960Z,100715.58
2022-09-05T04:43:51.229Z,100716.75
2022-09-05T04:46:48.579Z,100714.41
2022-09-05T04:49:41.430Z,100714.92
2022-09-05T04:52:47.736Z,100719.02
2022-09-05T04:55:57.993Z,100719.90
2022-09-05T05:02:56.271Z,100723.77
2022-09-05T05:06:05.905Z,100725.43
2022-09-05T05:06:10.661Z,100723.98
2022-09-05T05:09:06.196Z,100725.84
2022-09-05T05:12:19.870Z,100724.65
2022-09-05T05:18:10.901Z,100724.92
2022-09-05T05:19:04.225Z,100725.43
2022-09-05T05:22:05.806Z,100722.46
2022-09-05T05:25:01.826Z,100733.23
2022-09-05T05:28:23.903Z,100733.89
2022-09-05T05:31:31.786Z,100735.42
2022-09-05T05:34:53.850Z,100735.30
2022-09-05T05:37:56.284Z,100737.31
2022-09-05T05:40:51.465Z,100739.96
2022-09-05T05:43:45.493Z,100734.97
2022-09-05T05:46:38.084Z,100733.89
2022-09-05T05:50:26.458Z,100736.50
2022-09-05T05:54:00.400Z,100735.29
2022-09-05T05:57:17.469Z,100736.20
2022-09-05T06:01:37.320Z,100734.34
2022-09-05T06:04:41.471Z,100740.98
2022-09-05T06:11:06.051Z,100743.03
2022-09-05T06:14:57.885Z,100743.61
2022-09-05T06:17:26.301Z,100745.26
2022-09-05T06:22:10.060Z,100742.79
2022-09-05T06:24:58.710Z,100744.70
2022-09-05T06:28:34.923Z,100744.08
2022-09-05T06:32:13.979Z,100747.09
2022-09-05T06:36:13.660Z,100743.88
2022-09-05T06:40:04.388Z,100745.66
2022-09-05T06:44:03.799Z,100749.21
2022-09-05T06:47:33.269Z,100752.93
2022-09-05T06:51:08.158Z,100755.68
2022-09-05T06:54:18.115Z,100761.18
2022-09-05T06:57:57.732Z,100761.27
2022-09-05T07:01:44.740Z,100763.22
2022-09-05T07:05:40.012Z,100767.70
2022-09-05T07:09:28.532Z,100764.03
2022-09-05T07:12:46.364Z,100762.21
2022-09-05T07:16:08.633Z,100762.71
2022-09-05T07:19:27.296Z,100760.42
2022-09-05T07:24:06.563Z,100761.48
2022-09-05T07:27:16.078Z,100761.27
2022-09-05T07:30:57.831Z,100762.76
2022-09-05T07:34:27.736Z,100761.20
2022-09-05T07:38:06.886Z,100763.24
2022-09-05T07:41:00.891Z,100764.50
2022-09-05T07:44:06.140Z,100768.19
2022-09-05T07:47:20.481Z,100768.20
2022-09-05T07:53:18.730Z,100765.04
2022-09-05T07:56:50.337Z,100769.63
2022-09-05T07:57:31.299Z,100771.39
2022-09-05T08:00:43.172Z,100770.16
2022-09-05T08:03:37.744Z,100768.49
2022-09-05T08:07:11.873Z,100765.57
2022-09-05T08:10:11.258Z,100763.28
2022-09-05T08:13:33.432Z,100763.91
2022-09-05T08:16:35.507Z,100762.15
2022-09-05T08:20:09.043Z,100755.90
2022-09-05T08:23:36.995Z,100758.77
2022-09-05T08:26:48.988Z,100760.48
2022-09-05T08:29:44.576Z,100754.34
2022-09-05T08:33:13.251Z,100755.52
2022-09-05T08:36:37.969Z,100760.36
2022-09-05T08:39:45.796Z,100758.63
2022-09-05T08:46:37.791Z,100757.74
2022-09-05T08:46:50.156Z,100749.42
2022-09-05T08:50:29.008Z,100747.14
2022-09-05T08:53:54.244Z,100745.14
2022-09-05T08:57:20.817Z,100744.75
2022-09-05T09:00:20.895Z,100744.10
2022-09-05T09:03:51.943Z,100739.31
2022-09-05T09:06:44.855Z,100736.58
2022-09-05T09:10:37.704Z,100733.15
2022-09-05T09:13:55.260Z,100730.23
2022-09-05T09:17:41.917Z,100727.95
2022-09-05T09:21:22.127Z,100722.08
2022-09-05T09:24:43.360Z,100727.42
2022-09-05T09:28:46.548Z,100728.39
2022-09-05T09:32:04.865Z,100726.02
2022-09-05T09:35:20.776Z,100723.14
2022-09-05T09:38:48.072Z,100724.01
2022-09-05T09:42:33.511Z,100726.25
2022-09-05T09:45:53.964Z,100724.23
2022-09-05T09:49:23.271Z,100720.62
2022-09-05T09:53:06.561Z,100724.40
2022-09-05T09:56:55.610Z,100726.65
2022-09-05T09:59:54.452Z,100719.36
2022-09-05T10:06:00.302Z,100713.14
2022-09-05T10:10:45.059Z,100712.68
2022-09-05T10:11:18.806Z,100711.30
2022-09-05T10:14:49.233Z,100704.75
2022-09-05T10:18:15.143Z,100701.64
2022-09-05T10:21:26.633Z,100701.02
2022-09-05T10:24:43.242Z,100700.60
2022-09-05T10:28:01.290Z,100702.89
2022-09-05T10:32:13.564Z,100707.00
2022-09-05T10:35:17.388Z,100704.83
2022-09-05T10:38:17.126Z,100703.41
2022-09-05T10:42:05.332Z,100701.27
2022-09-05T10:46:00.838Z,100702.63
2022-09-05T10:49:23.360Z,100702.58
2022-09-05T10:52:35.717Z,100701.36
2022-09-05T10:56:00.491Z,100702.98
2022-09-05T11:02:20.428Z,100697.85
2022-09-05T11:03:39.556Z,100698.49
2022-09-05T11:07:09.755Z,100695.48
2022-09-05T11:10:23.035Z,100689.86
2022-09-05T11:13:24.480Z,100691.11
2022-09-05T11:16:48.531Z,100685.94
2022-09-05T11:20:26.116Z,100682.09
2022-09-05T11:23:56.891Z,100682.77
2022-09-05T11:27:35.984Z,100682.71
2022-09-05T11:30:42.975Z,100674.45
2022-09-05T11:39:14.826Z,100673.90
2022-09-05T11:40:06.359Z,100673.04
2022-09-05T11:40:59.180Z,100664.53
2022-09-05T11:44:24.771Z,100668.02
2022-09-05T11:47:34.962Z,100662.39
2022-09-05T11:50:50.461Z,100668.95
2022-09-05T11:54:08.326Z,100665.71
2022-09-05T11:57:21.640Z,100666.60
2022-09-05T12:00:33.041Z,100668.04
2022-09-05T12:04:12.926Z,100670.72
2022-09-05T12:07:26.968Z,100669.41
2022-09-05T12:10:47.905Z,100664.05
2022-09-05T12:14:21.389Z,100657.55
2022-09-05T12:17:34.800Z,100656.38
2022-09-05T12:20:43.028Z,100649.90
2022-09-05T12:25:15.147Z,100650.86
2022-09-05T12:27:38.397Z,100654.98
2022-09-05T12:31:09.929Z,100652.70
2022-09-05T12:36:10.277Z,100649.91
2022-09-05T12:40:27.630Z,100639.96
2022-09-05T12:41:34.145Z,100641.92
2022-09-05T12:44:38.012Z,100638.11
2022-09-05T12:47:30.947Z,100643.00
2022-09-05T12:50:32.637Z,100642.20
2022-09-05T12:53:20.563Z,100642.73
2022-09-05T13:01:30.571Z,100641.84
2022-09-05T13:03:08.862Z,100637.51
2022-09-05T13:03:27.782Z,100636.67
2022-09-05T13:06:51.168Z,100639.70
2022-09-05T13:11:08.107Z,100637.39
2022-09-05T13:14:53.961Z,100638.36
2022-09-05T13:16:23.746Z,100634.55
2022-09-05T13:19:51.497Z,100625.23
2022-09-05T13:22:55.557Z,100615.04
2022-09-05T13:26:01.646Z,100605.34
2022-09-05T13:29:10.545Z,100601.16
2022-09-05T13:37:58.444Z,100600.89
2022-09-05T13:38:08.308Z,100601.41
2022-09-05T13:39:28.876Z,100601.63
2022-09-05T13:42:23.611Z,100607.54
2022-09-05T13:45:19.859Z,100605.00
2022-09-05T13:52:46.882Z,100602.16
2022-09-05T13:55:44.397Z,100600.80
2022-09-05T13:58:57.272Z,100602.15
2022-09-05T14:02:25.680Z,100603.88
2022-09-05T14:05:44.991Z,100601.23
2022-09-05T14:09:38.551Z,100598.13
2022-09-05T14:12:52.739Z,100593.80
2022-09-05T14:15:55.453Z,100590.85
2022-09-05T14:19:43.165Z,100585.98
2022-09-05T14:22:45.333Z,100581.64
2022-09-05T14:26:16.270Z,100580.52
2022-09-05T14:29:34.781Z,100579.91
2022-09-05T14:37:38.703Z,100580.60
2022-09-05T14:37:51.595Z,100577.14
2022-09-05T14:40:30.077Z,100574.97
2022-09-05T14:43:37.533Z,100579.61
2022-09-05T14:46:34.033Z,100576.87
2022-09-05T14:50:03.886Z,100571.73
2022-09-05T14:59:32.639Z,100570.25
2022-09-05T15:02:53.005Z,100571.93
2022-09-05T15:03:03.832Z,100566.66
2022-09-05T15:05:50.144Z,100566.35
2022-09-05T15:10:09.131Z,100567.40
2022-09-05T15:12:21.984Z,100563.73
2022-09-05T15:14:20.505Z,100565.69
2022-09-05T15:17:07.158Z,100561.48
2022-09-05T15:20:06.502Z,100562.95
2022-09-05T15:22:44.749Z,100561.30
2022-09-05T15:25:25.402Z,100562.96
2022-09-05T15:27:58.018Z,100564.63
2022-09-05T15:30:35.724Z,100563.12
2022-09-05T15:33:26.294Z,100565.41
2022-09-05T15:36:17.707Z,100562.02
2022-09-05T15:39:01.731Z,100563.84
2022-09-05T15:41:38.015Z,100558.77
2022-09-05T15:44:15.097Z,100559.64
2022-09-05T15:47:44.296Z,100555.30
2022-09-05T15:50:37.228Z,100554.98
2022-09-05T15:53:18.462Z,100555.66
2022-09-05T15:56:25.426Z,100553.56
2022-09-05T15:59:48.219Z,100550.32
2022-09-05T16:02:42.562Z,100544.08
2022-09-05T16:10:27.397Z,100540.00
2022-09-05T16:10:45.591Z,100533.23
2022-09-05T16:12:16.254Z,100530.86
2022-09-05T16:16:29.889Z,100532.35
2022-09-05T16:23:12.789Z,100531.51
2022-09-05T16:23:30.449Z,100534.03
2022-09-05T16:24:45.050Z,100533.13
2022-09-05T16:28:13.307Z,100537.40
2022-09-05T16:30:53.064Z,100538.55
2022-09-05T16:33:34.204Z,100539.81
2022-09-05T16:36:29.718Z,100542.52
2022-09-05T16:39:34.375Z,100545.30
2022-09-05T16:42:47.122Z,100541.29
2022-09-05T16:46:12.813Z,100540.48
2022-09-05T16:49:42.286Z,100541.00
2022-09-05T16:52:33.505Z,100545.44
2022-09-05T16:55:28.900Z,100541.75
2022-09-05T16:58:16.137Z,100537.41
2022-09-05T17:01:39.153Z,100533.41
2022-09-05T17:04:38.713Z,100535.72
2022-09-05T17:07:17.124Z,100532.09
2022-09-05T17:10:13.285Z,100530.30
2022-09-05T17:13:19.007Z,100529.23
2022-09-05T17:17:38.933Z,100529.73
2022-09-05T17:20:52.314Z,100531.80
2022-09-05T17:29:17.047Z,100534.35
2022-09-05T17:29:32.594Z,100533.25
2022-09-05T17:33:54.803Z,100534.59
2022-09-05T17:37:38.615Z,100533.41
2022-09-05T17:40:34.931Z,100534.66
2022-09-05T17:43:28.761Z,100535.45
2022-09-05T17:46:59.476Z,100537.84
2022-09-05T17:50:38.469Z,100539.03
2022-09-05T17:53:35.550Z,100533.98
2022-09-05T17:56:15.058Z,100533.39
2022-09-05T17:59:39.973Z,100533.95
2022-09-05T18:03:10.425Z,100530.40
2022-09-05T18:06:34.040Z,100538.35
2022-09-05T18:09:14.054Z,100540.80
2022-09-05T18:13:31.539Z,100544.95
2022-09-05T18:16:05.875Z,100549.31
2022-09-05T18:22:30.781Z,100555.64
2022-09-05T18:25:47.364Z,100560.92
2022-09-05T18:28:44.274Z,100565.55
2022-09-05T18:32:10.519Z,100559.51
2022-09-05T18:35:37.903Z,100560.52
2022-09-05T18:38:50.954Z,100566.96
2022-09-05T18:42:26.553Z,100571.91
2022-09-05T18:45:58.920Z,100575.10
2022-09-05T18:50:25.637Z,100578.92
2022-09-05T18:53:17.114Z,100570.71
2022-09-05T18:57:26.381Z,100569.20
2022-09-05T19:00:16.797Z,100566.84
2022-09-05T19:03:43.547Z,100564.10
2022-09-05T19:06:36.021Z,100566.36
2022-09-05T19:09:49.112Z,100565.41
2022-09-05T19:12:54.557Z,100566.51
2022-09-05T19:16:47.901Z,100573.98
2022-09-05T19:20:30.488Z,100578.14
2022-09-05T19:23:34.757Z,100577.72
2022-09-05T19:26:34.765Z,100573.92
2022-09-05T19:36:55.463Z,100571.95
2022-09-05T19:37:09.606Z,100564.27
2022-09-05T19:37:24.298Z,100562.67
2022-09-05T19:47:47.596Z,100554.86
2022-09-05T19:47:50.888Z,100556.77
2022-09-05T19:48:49.282Z,100550.39
2022-09-05T19:52:25.349Z,100546.45
2022-09-05T19:55:40.426Z,100545.23
2022-09-05T19:59:07.151Z,100543.55
2022-09-05T20:02:00.729Z,100538.43
2022-09-05T20:05:11.745Z,100541.11
2022-09-05T20:08:11.865Z,100542.48
2022-09-05T20:11:21.551Z,100544.21
2022-09-05T20:14:46.481Z,100539.22
2022-09-05T20:17:21.455Z,100541.39
2022-09-05T20:20:28.962Z,100535.86
2022-09-05T20:27:50.565Z,100537.73
2022-09-05T20:31:04.435Z,100536.74
2022-09-05T20:40:47.119Z,100541.64
2022-09-05T20:43:14.980Z,100546.86
2022-09-05T20:43:31.023Z,100544.96
2022-09-05T20:44:30.518Z,100545.70
2022-09-05T20:51:00.635Z,100551.95
2022-09-05T20:54:17.838Z,100549.14
2022-09-05T20:58:18.224Z,100546.52
2022-09-05T21:01:38.057Z,100549.44
2022-09-05T21:05:20.077Z,100547.28
2022-09-05T21:09:04.606Z,100546.71
2022-09-05T21:12:27.893Z,100553.94
2022-09-05T21:15:52.542Z,100556.00
2022-09-05T21:19:22.511Z,100563.95
2022-09-05T21:22:50.131Z,100565.11
2022-09-05T21:26:23.309Z,100567.75
2022-09-05T21:30:09.516Z,100564.95
2022-09-05T21:38:33.612Z,100565.54
2022-09-05T21:42:03.460Z,100566.80
2022-09-05T21:47:47.980Z,100565.95
2022-09-05T21:50:43.512Z,100573.16
2022-09-05T21:59:17.398Z,100566.88
2022-09-05T21:59:30.623Z,100561.11
2022-09-05T22:05:15.491Z,100558.81
2022-09-05T22:08:15.650Z,100563.10
2022-09-05T22:11:25.322Z,100560.58
2022-09-05T22:14:47.975Z,100561.84
2022-09-05T22:17:58.439Z,100559.84
2022-09-05T22:21:31.666Z,100552.75
2022-09-05T22:24:17.362Z,100555.55
2022-09-05T22:27:22.301Z,100555.98
2022-09-05T22:30:27.364Z,100556.48
2022-09-05T22:33:34.287Z,100545.83
2022-09-05T22:36:23.269Z,100539.54
2022-09-05T22:39:06.674Z,100534.56
2022-09-05T22:42:16.773Z,100538.31
2022-09-05T22:45:19.448Z,100537.88
2022-09-05T22:48:38.616Z,100535.85
2022-09-05T22:52:00.554Z,100532.09
2022-09-05T22:55:09.786Z,100526.91
2022-09-05T22:58:33.592Z,100525.48
2022-09-05T23:02:02.352Z,100525.81
2022-09-05T23:05:18.025Z,100528.92
2022-09-05T23:08:13.023Z,100532.45
2022-09-05T23:11:33.845Z,100539.79
2022-09-05T23:14:16.557Z,100536.76
2022-09-05T23:17:30.699Z,100532.15
2022-09-05T23:20:34.373Z,100530.14
2022-09-05T23:23:30.270Z,100525.16
2022-09-05T23:26:33.530Z,100529.46
2022-09-05T23:29:27.671Z,100529.13
2022-09-05T23:32:09.494Z,100527.52
2022-09-05T23:34:50.239Z,100524.09
2022-09-05T23:37:28.298Z,100525.34
2022-09-05T23:40:19.059Z,100526.30
2022-09-05T23:42:58.785Z,100525.22
2022-09-05T23:45:36.878Z,100527.88
2022-09-05T23:48:13.156Z,100530.98
2022-09-05T23:51:08.833Z,100526.60
2022-09-05T23:54:01.064Z,100522.12
2022-09-05T23:56:53.722Z,100521.45
2022-09-05T23:59:43.724Z,100517.23
